Sete Cidades — CSAJ — position and weather

sailwx.info

Track history (hours):
 
Tides and Currents Weather Stations Pressure Air Temp Water Temp Dewpoint Dewpoint Depression Visibility Wind Speed Wind Dir Waves Ship Positions

Sete Cidades

Last reported at 2018-Feb-06 08:00 UTC. Time now 2018-Feb-19 18:13 UTC.
Position N 38°44' W 009°06'.
Warning: this ship's position is 13 days out of date.

Length 100 m; draft 4.4 m.

Type: Cargo ship. MMSI: 255806015.

Date/timePositionNaut miles runAvg speedWind from/ knotsBaromVisibWave heightAir tempDewpointWater temp
2018-Feb-06 08:00N 38°44' W 009°06'  
2018-Feb-03 17:38N 38°44' W 009°06'0 1.7
2018-Feb-03 17:30N 38°44' W 009°06'612.7
2018-Feb-03 17:00N 38°41' W 009°14'1010.1
2018-Feb-03 16:00N 38°32' W 009°20'815.2
2018-Feb-03 15:31N 38°25' W 009°16'713.2
2018-Feb-03 15:00N 38°24' W 009°07'714.4
2018-Feb-03 14:31N 38°26' W 008°59'7 2.7
2018-Feb-03 12:02N 38°31' W 008°53'0 0.1
2018-Feb-03 11:56N 38°31' W 008°53'0 0.0
2018-Feb-03 11:29N 38°31' W 008°53'0 0.1
2018-Feb-03 10:10N 38°31' W 008°53'0 2.5
2018-Feb-03 10:00N 38°31' W 008°54'510.7
2018-Feb-03 09:30N 38°27' W 008°58'612.0
2018-Feb-03 09:00N 38°22' W 009°03'714.5
2018-Feb-03 08:30N 38°21' W 009°12'713.5
2018-Feb-03 08:00N 38°26' W 009°18'1711.3
2018-Feb-03 06:28N 38°42' W 009°09'3 1.4
2018-Feb-03 03:58N 38°44' W 009°06'0 0.0
2018-Feb-03 03:28N 38°44' W 009°06'0 0.0
2018-Feb-03 00:52N 38°44' W 009°06'0 0.0
2018-Feb-03 00:28N 38°44' W 009°06'0 0.0
2018-Feb-02 23:58N 38°44' W 009°06'0 0.0
2018-Feb-02 23:25N 38°44' W 009°06'0 0.0
2018-Feb-02 22:58N 38°44' W 009°06'0 0.0
2018-Feb-02 22:28N 38°44' W 009°06'0 0.0
2018-Feb-02 21:55N 38°44' W 009°06'0 0.0
2018-Feb-02 21:28N 38°44' W 009°06'0 0.0
2018-Feb-02 13:58N 38°44' W 009°06'0 0.5
2018-Feb-02 13:30N 38°44' W 009°06'611.3
2018-Feb-02 13:00N 38°41' W 009°12'5 9.2
2018-Feb-02 12:28N 38°40' W 009°18'510.4
2018-Feb-02 12:00N 38°38' W 009°24'2 4.7
2018-Feb-02 11:30N 38°41' W 009°24'0 0.0
2018-Feb-02 11:00N 38°41' W 009°24'0 0.0
2018-Feb-02 10:30N 38°41' W 009°24'0 0.2
2018-Feb-02 10:00N 38°41' W 009°24'3 5.8
2018-Feb-02 09:30N 38°39' W 009°27'714.3
2018-Feb-02 09:00N 38°44' W 009°34'815.8
2018-Feb-02 08:30N 38°51' W 009°37'815.7
2018-Feb-02 08:00N 38°58' W 009°41'815.5
2018-Feb-02 07:30N 39°06' W 009°42'815.6
2018-Feb-02 07:00N 39°14' W 009°42'815.6
2018-Feb-02 06:30N 39°22' W 009°42'10415.4
2018-Feb-01 23:44N 40°58' W 008°51'415.9
2018-Feb-01 23:30N 41°02' W 008°49'815.8
2018-Feb-01 23:00N 41°08' W 008°43'3 2.8
2018-Feb-01 21:57N 41°11' W 008°42'0 0.0
2018-Feb-01 21:30N 41°11' W 008°42'0 0.0
2018-Feb-01 19:27N 41°11' W 008°42'0 0.0
2018-Feb-01 19:00N 41°11' W 008°42'0 0.0
2018-Feb-01 18:30N 41°11' W 008°42'0 0.0
2018-Feb-01 18:00N 41°11' W 008°42'0 0.0
2018-Feb-01 17:30N 41°11' W 008°42'0 0.0
2018-Feb-01 17:00N 41°11' W 008°42'0 0.0
2018-Feb-01 16:30N 41°11' W 008°42'0 0.0
2018-Feb-01 16:00N 41°11' W 008°42'0 0.0
2018-Feb-01 15:30N 41°11' W 008°42'0 0.0
2018-Feb-01 15:00N 41°11' W 008°42'0 0.0
2018-Feb-01 13:30N 41°11' W 008°42'0 0.0
2018-Feb-01 13:00N 41°11' W 008°42'0 0.0
2018-Feb-01 12:29N 41°11' W 008°42'0 0.0
2018-Feb-01 11:59N 41°11' W 008°42'0 0.0
2018-Feb-01 10:59N 41°11' W 008°42'0 0.0
2018-Feb-01 10:29N 41°11' W 008°42'0 0.0
2018-Feb-01 09:59N 41°11' W 008°42'0 0.0
2018-Feb-01 09:29N 41°11' W 008°42'0 0.0
2018-Feb-01 08:59N 41°11' W 008°42'0 0.0
2018-Feb-01 08:29N 41°11' W 008°42'0 0.4
2018-Feb-01 07:29N 41°11' W 008°42'0 0.0
2018-Feb-01 06:59N 41°11' W 008°42'0 0.0
2018-Feb-01 06:29N 41°11' W 008°42'0 0.0
2018-Feb-01 05:59N 41°11' W 008°42'0 0.0
2018-Feb-01 05:29N 41°11' W 008°42'0 0.0
2018-Feb-01 04:59N 41°11' W 008°42'0 0.0
2018-Feb-01 04:29N 41°11' W 008°42'0 0.0
2018-Feb-01 03:59N 41°11' W 008°42'0 0.0
2018-Feb-01 02:59N 41°11' W 008°42'0 0.0
2018-Feb-01 02:29N 41°11' W 008°42'0 0.0
2018-Feb-01 01:59N 41°11' W 008°42'0 0.0
2018-Feb-01 01:29N 41°11' W 008°42'0 0.0
2018-Feb-01 00:59N 41°11' W 008°42'0 0.0
2018-Feb-01 00:29N 41°11' W 008°42'0 0.0
2018-Jan-31 23:59N 41°11' W 008°42'0 0.0
2018-Jan-31 22:59N 41°11' W 008°42'0 0.0
2018-Jan-31 22:29N 41°11' W 008°42'0 0.0
2018-Jan-31 21:00N 41°11' W 008°42'0 0.9
2018-Jan-31 20:30N 41°10' W 008°42'4 8.0
2018-Jan-31 20:00N 41°07' W 008°45'12614.4
2018-Jan-31 11:16N 39°18' W 010°06'414.2
2018-Jan-31 11:00N 39°15' W 010°09'714.4
2018-Jan-31 10:30N 39°09' W 010°14'714.4
2018-Jan-31 10:00N 39°02' W 010°17'714.4
2018-Jan-31 09:30N 38°55' W 010°21'714.4
2018-Jan-31 09:00N 38°48' W 010°24'714.3
2018-Jan-31 08:29N 38°42' W 010°28'714.2
2018-Jan-31 07:59N 38°35' W 010°31'1014.0
2018-Jan-31 07:15N 38°25' W 010°36'314.3
2018-Jan-31 07:00N 38°22' W 010°38'714.4
2018-Jan-31 06:30N 38°16' W 010°42'714.1
2018-Jan-31 06:00N 38°09' W 010°46'60912.5
2018-Jan-29 05:17N 28°50' W 015°35'311.3
2018-Jan-29 04:59N 28°47' W 015°36'611.9
2018-Jan-29 04:30N 28°42' W 015°38'711.9
2018-Jan-29 03:57N 28°36' W 015°41'712.2
2018-Jan-29 03:25N 28°31' W 015°46'712.2
2018-Jan-29 02:53N 28°26' W 015°51'512.1
2018-Jan-29 02:30N 28°22' W 015°54'611.8
2018-Jan-29 01:59N 28°17' W 015°58'  
Track history (hours):
 
Tides and Currents Weather Stations Pressure Air Temp Water Temp Dewpoint Dewpoint Depression Visibility Wind Speed Wind Dir Waves Ship Positions

Sete Cidades

Last reported at 2018-Feb-06 08:00 UTC. Time now 2018-Feb-19 18:13 UTC.
Position N 38°44' W 009°06'.
Warning: this ship's position is 13 days out of date.

Length 100 m; draft 4.4 m.

Type: Cargo ship. MMSI: 255806015.

Date/timePositionNaut miles runAvg speedWind from/ knotsBaromVisibWave heightAir tempDewpointWater temp
2018-Feb-06 08:00N 38°44' W 009°06'  
2018-Feb-03 17:38N 38°44' W 009°06'0 1.7
2018-Feb-03 17:30N 38°44' W 009°06'612.7
2018-Feb-03 17:00N 38°41' W 009°14'1010.1
2018-Feb-03 16:00N 38°32' W 009°20'815.2
2018-Feb-03 15:31N 38°25' W 009°16'713.2
2018-Feb-03 15:00N 38°24' W 009°07'714.4
2018-Feb-03 14:31N 38°26' W 008°59'7 2.7
2018-Feb-03 12:02N 38°31' W 008°53'0 0.1
2018-Feb-03 11:56N 38°31' W 008°53'0 0.0
2018-Feb-03 11:29N 38°31' W 008°53'0 0.1
2018-Feb-03 10:10N 38°31' W 008°53'0 2.5
2018-Feb-03 10:00N 38°31' W 008°54'510.7
2018-Feb-03 09:30N 38°27' W 008°58'612.0
2018-Feb-03 09:00N 38°22' W 009°03'714.5
2018-Feb-03 08:30N 38°21' W 009°12'713.5
2018-Feb-03 08:00N 38°26' W 009°18'1711.3
2018-Feb-03 06:28N 38°42' W 009°09'3 1.4
2018-Feb-03 03:58N 38°44' W 009°06'0 0.0
2018-Feb-03 03:28N 38°44' W 009°06'0 0.0
2018-Feb-03 00:52N 38°44' W 009°06'0 0.0
2018-Feb-03 00:28N 38°44' W 009°06'0 0.0
2018-Feb-02 23:58N 38°44' W 009°06'0 0.0
2018-Feb-02 23:25N 38°44' W 009°06'0 0.0
2018-Feb-02 22:58N 38°44' W 009°06'0 0.0
2018-Feb-02 22:28N 38°44' W 009°06'0 0.0
2018-Feb-02 21:55N 38°44' W 009°06'0 0.0
2018-Feb-02 21:28N 38°44' W 009°06'0 0.0
2018-Feb-02 13:58N 38°44' W 009°06'0 0.5
2018-Feb-02 13:30N 38°44' W 009°06'611.3
2018-Feb-02 13:00N 38°41' W 009°12'5 9.2
2018-Feb-02 12:28N 38°40' W 009°18'510.4
2018-Feb-02 12:00N 38°38' W 009°24'2 4.7
2018-Feb-02 11:30N 38°41' W 009°24'0 0.0
2018-Feb-02 11:00N 38°41' W 009°24'0 0.0
2018-Feb-02 10:30N 38°41' W 009°24'0 0.2
2018-Feb-02 10:00N 38°41' W 009°24'3 5.8
2018-Feb-02 09:30N 38°39' W 009°27'714.3
2018-Feb-02 09:00N 38°44' W 009°34'815.8
2018-Feb-02 08:30N 38°51' W 009°37'815.7
2018-Feb-02 08:00N 38°58' W 009°41'815.5
2018-Feb-02 07:30N 39°06' W 009°42'815.6
2018-Feb-02 07:00N 39°14' W 009°42'815.6
2018-Feb-02 06:30N 39°22' W 009°42'10415.4
2018-Feb-01 23:44N 40°58' W 008°51'415.9
2018-Feb-01 23:30N 41°02' W 008°49'815.8
2018-Feb-01 23:00N 41°08' W 008°43'3 2.8
2018-Feb-01 21:57N 41°11' W 008°42'0 0.0
2018-Feb-01 21:30N 41°11' W 008°42'0 0.0
2018-Feb-01 19:27N 41°11' W 008°42'0 0.0
2018-Feb-01 19:00N 41°11' W 008°42'0 0.0
2018-Feb-01 18:30N 41°11' W 008°42'0 0.0
2018-Feb-01 18:00N 41°11' W 008°42'0 0.0
2018-Feb-01 17:30N 41°11' W 008°42'0 0.0
2018-Feb-01 17:00N 41°11' W 008°42'0 0.0
2018-Feb-01 16:30N 41°11' W 008°42'0 0.0
2018-Feb-01 16:00N 41°11' W 008°42'0 0.0
2018-Feb-01 15:30N 41°11' W 008°42'0 0.0
2018-Feb-01 15:00N 41°11' W 008°42'0 0.0
2018-Feb-01 13:30N 41°11' W 008°42'0 0.0
2018-Feb-01 13:00N 41°11' W 008°42'0 0.0
2018-Feb-01 12:29N 41°11' W 008°42'0 0.0
2018-Feb-01 11:59N 41°11' W 008°42'0 0.0
2018-Feb-01 10:59N 41°11' W 008°42'0 0.0
2018-Feb-01 10:29N 41°11' W 008°42'0 0.0
2018-Feb-01 09:59N 41°11' W 008°42'0 0.0
2018-Feb-01 09:29N 41°11' W 008°42'0 0.0
2018-Feb-01 08:59N 41°11' W 008°42'0 0.0
2018-Feb-01 08:29N 41°11' W 008°42'0 0.4
2018-Feb-01 07:29N 41°11' W 008°42'0 0.0
2018-Feb-01 06:59N 41°11' W 008°42'0 0.0
2018-Feb-01 06:29N 41°11' W 008°42'0 0.0
2018-Feb-01 05:59N 41°11' W 008°42'0 0.0
2018-Feb-01 05:29N 41°11' W 008°42'0 0.0
2018-Feb-01 04:59N 41°11' W 008°42'0 0.0
2018-Feb-01 04:29N 41°11' W 008°42'0 0.0
2018-Feb-01 03:59N 41°11' W 008°42'0 0.0
2018-Feb-01 02:59N 41°11' W 008°42'0 0.0
2018-Feb-01 02:29N 41°11' W 008°42'0 0.0
2018-Feb-01 01:59N 41°11' W 008°42'0 0.0
2018-Feb-01 01:29N 41°11' W 008°42'0 0.0
2018-Feb-01 00:59N 41°11' W 008°42'0 0.0
2018-Feb-01 00:29N 41°11' W 008°42'0 0.0
2018-Jan-31 23:59N 41°11' W 008°42'0 0.0
2018-Jan-31 22:59N 41°11' W 008°42'0 0.0
2018-Jan-31 22:29N 41°11' W 008°42'0 0.0
2018-Jan-31 21:00N 41°11' W 008°42'0 0.9
2018-Jan-31 20:30N 41°10' W 008°42'4 8.0
2018-Jan-31 20:00N 41°07' W 008°45'12614.4
2018-Jan-31 11:16N 39°18' W 010°06'414.2
2018-Jan-31 11:00N 39°15' W 010°09'714.4
2018-Jan-31 10:30N 39°09' W 010°14'714.4
2018-Jan-31 10:00N 39°02' W 010°17'714.4
2018-Jan-31 09:30N 38°55' W 010°21'714.4
2018-Jan-31 09:00N 38°48' W 010°24'714.3
2018-Jan-31 08:29N 38°42' W 010°28'714.2
2018-Jan-31 07:59N 38°35' W 010°31'1014.0
2018-Jan-31 07:15N 38°25' W 010°36'314.3
2018-Jan-31 07:00N 38°22' W 010°38'714.4
2018-Jan-31 06:30N 38°16' W 010°42'714.1
2018-Jan-31 06:00N 38°09' W 010°46'60912.5
2018-Jan-29 05:17N 28°50' W 015°35'311.3
2018-Jan-29 04:59N 28°47' W 015°36'611.9
2018-Jan-29 04:30N 28°42' W 015°38'711.9
2018-Jan-29 03:57N 28°36' W 015°41'712.2
2018-Jan-29 03:25N 28°31' W 015°46'712.2
2018-Jan-29 02:53N 28°26' W 015°51'512.1
2018-Jan-29 02:30N 28°22' W 015°54'611.8
2018-Jan-29 01:59N 28°17' W 015°58'  

Dump ship's entire track history